Flight Track Log - Related Links

Times and Time Zones

All times are in EST time to prevent confusion due to time zone crossing. See the N27XP flight status page for this flight to view local times or setup timezone preferences in your user account.

Time Position Orientation Groundspeed Altitude Reporting Facility
EST Latitude Longitude Course Direction KTS MPH feet Rate Location/Type
Mon 03:39:13 PM 39.8661 -84.2633 213° Southwest 214 246 4,100  Level Indianapolis Center
Mon 03:39:14 PM 39.8642 -84.2603 130° Southeast 209 241 4,200 2,710 Climbing Indianapolis Center
Mon 03:40:15 PM 39.8056 -84.2175 151° Southeast 287 330 6,900 2,754 Climbing Indianapolis Center
Mon 03:41:16 PM 39.8136 -84.1058 85° East 319 367 9,800 2,293 Climbing Indianapolis Center
Mon 03:42:18 PM 39.8425 -83.9789 73° East 367 422 11,600 1,790 Climbing Indianapolis Center
Mon 03:43:20 PM 39.8747 -83.8381 73° East 402 463 13,500 1,790 Climbing Indianapolis Center
Mon 03:44:22 PM 39.9044 -83.6844 76° East 437 503 15,300 1,839 Climbing Indianapolis Center
Mon 03:45:24 PM 39.8933 -83.5189 95° East 449 517 17,300 1,902 Climbing Indianapolis Center
Mon 03:46:25 PM 39.8792 -83.3450 96° East 457 526 19,200 1,902 Climbing Indianapolis Center
Mon 03:47:27 PM 39.8664 -83.1792 96° East 458 527 21,200 2,032 Climbing Indianapolis Center
Mon 03:48:29 PM 39.8506 -82.9811 96° East 459 528 23,400 1,902 Climbing Indianapolis Center
Mon 03:49:30 PM 39.8369 -82.8156 96° East 461 531 25,100 1,561 Climbing Indianapolis Center
Mon 03:50:32 PM 39.8233 -82.6481 96° East 464 534 26,600 1,452 Climbing Indianapolis Center
Mon 03:51:34 PM 39.8097 -82.4794 96° East 470 541 28,100 1,403 Climbing Indianapolis Center
Mon 03:52:36 PM 39.7947 -82.3100 97° East 472 543 29,500 1,317 Climbing Indianapolis Center
Mon 03:53:37 PM 39.7797 -82.1381 96° East 478 550 30,800 732 Climbing Indianapolis Center
Mon 03:54:39 PM 39.7636 -81.9614 97° East 489 563 31,000 97 Climbing Indianapolis Center
Mon 03:55:41 PM 39.7422 -81.7328 97° East 523 602 31,000  Level Indianapolis Center
Mon 03:56:43 PM 39.7253 -81.5364 96° East 543 625 31,000  Level Indianapolis Center
Mon 03:57:44 PM 39.7067 -81.3347 97° East 551 634 31,000  Level Indianapolis Center
Mon 03:58:46 PM 39.6869 -81.1372 97° East 549 632 31,000  Level Indianapolis Center
Mon 03:59:48 PM 39.6683 -80.9389 97° East 550 633 31,000  Level Indianapolis Center
Mon 04:00:49 PM 39.6483 -80.7411 97° East 549 632 31,000  Level Indianapolis Center
Mon 04:01:51 PM 39.6278 -80.5453 98° East 547 629 31,000  Level Indianapolis Center
Mon 04:02:53 PM 39.6031 -80.3511 99° East 544 626 31,000  Level Indianapolis Center
Mon 04:04:07 PM 39.5733 -80.1186 99° East 542 624 31,000 -2,182 Level Indianapolis Center
Mon 04:04:43 PM 39.5600 -80.0008 98° East 557 641 27,000  Descending Washington Center
Mon 04:05:43 PM 39.5358 -79.8083 99° East 547 629 31,000 793 Climbing Washington Center
Mon 04:06:44 PM 39.5131 -79.6186 99° East 541 623 28,600 -2,017 Descending Washington Center
Mon 04:07:42 PM 39.4836 -79.4342 102° East 531 611 27,000 -814 Descending Washington Center
Mon 04:08:42 PM 39.4419 -79.2303 105° East 526 605 27,000 -689 Level Washington Center
Mon 04:09:44 PM 39.4100 -79.0486 103° East 526 605 25,600 -1,967 Descending Washington Center
Mon 04:10:44 PM 39.3775 -78.8700 103° East 521 600 23,000 -2,847 Descending Washington Center
Mon 04:11:42 PM 39.3467 -78.6967 103° East 498 573 20,000 -3,203 Descending Washington Center
Mon 04:12:42 PM 39.3172 -78.5344 103° East 485 558 16,700 -3,174 Descending Washington Center
Mon 04:13:43 PM 39.2856 -78.3831 105° East 456 525 13,600 -2,479 Descending Washington Center
Mon 04:14:43 PM 39.2256 -78.2683 124° Southeast 404 465 11,700 -2,083 Descending Washington Center
Mon 04:15:44 PM 39.1694 -78.1617 124° Southeast 384 442 9,400 -2,410 Descending Washington Center
Mon 04:16:45 PM 39.1172 -78.0636 124° Southeast 355 409 6,800 -2,339 Descending Washington Center
Mon 04:17:42 PM 39.0731 -77.9819 125° Southeast 330 380 4,800 -1,436 Descending Washington Center
Mon 04:18:42 PM 39.0289 -77.8950 123° Southeast 306 352 4,000 -893 Descending Washington Center
Mon 04:19:43 PM 38.9867 -77.8161 125° Southeast 260 299 3,000 -694 Descending Washington Center
Mon 04:20:43 PM 38.9544 -77.7539 124° Southeast 239 275 2,600 -198 Descending Washington Center
Mon 04:21:44 PM 38.9203 -77.6861 123° Southeast 222 255 2,600  Level Washington Center
Mon 04:23:10 PM 38.8500 -77.6000 136° Southeast 208 239 2,600 -205 Level Potomac TRACON
Mon 04:24:10 PM 38.8167 -77.5667 142° Southeast 168 193 2,100 -600 Descending Potomac TRACON
Mon 04:25:10 PM 38.7833 -77.5500 159° South 128 147 1,400 -684 Descending Potomac TRACON
Mon 04:26:04 PM 38.7500 -77.5333 159° South 121 139 800 -667 Descending Potomac TRACON
Mon 04:28:00 PM 38.7210 -77.5151 169° South  Level Estimated
Mon 04:35:00 PM 38.7210 -77.5151 169° South  Level Estimated
Mon 04:36:00 PM 38.7210 -77.5151 169° South  Level Estimated

Login

Don't have an account? Register now (free) for customized features, flight alerts, and more!